Time;durP1;ratioP1;P1;durP2;ratioP2;P2;SDS_P1;SDS_P2;PMS_P1;PMS_P2;Temp;Humidity;BMP_temperature;BMP_pressure;BME280_temperature;BME280_humidity;BME280_pressure;Samples;Min_cycle;Max_cycle;Signal;HPM_P1;HPM_P2
2023/03/13 00:01:59;;;;;;;7.72;4.78;;;16.50;76.30;;;;;;5011976;28;20034;-77
2023/03/13 00:04:25;;;;;;;5.03;4.63;;;16.50;76.20;;;;;;5000355;28;20038;-77
2023/03/13 00:06:51;;;;;;;5.25;4.75;;;16.40;76.10;;;;;;5006366;28;20048;-77
2023/03/13 00:09:17;;;;;;;4.57;4.28;;;16.40;76.10;;;;;;5019210;28;20117;-76
2023/03/13 00:11:43;;;;;;;5.00;4.60;;;16.50;76.30;;;;;;5004216;28;20038;-77
2023/03/13 00:14:09;;;;;;;4.18;3.88;;;16.40;76.20;;;;;;5004001;28;20132;-77
2023/03/13 00:16:36;;;;;;;4.20;3.90;;;16.40;76.20;;;;;;5005065;28;20077;-76
2023/03/13 00:19:02;;;;;;;4.95;4.45;;;16.50;75.90;;;;;;5001896;28;20081;-77
2023/03/13 00:21:28;;;;;;;3.83;3.53;;;16.40;75.90;;;;;;5006464;28;20062;-77
2023/03/13 00:23:54;;;;;;;4.22;3.90;;;16.40;76.30;;;;;;5004620;28;20403;-77
2023/03/13 00:26:21;;;;;;;3.80;3.50;;;16.40;76.00;;;;;;5036680;28;20042;-77
2023/03/13 00:28:47;;;;;;;3.88;3.60;;;16.40;76.10;;;;;;4999795;28;20046;-77
2023/03/13 00:31:14;;;;;;;4.10;3.70;;;16.40;76.20;;;;;;5005228;28;20499;-77
2023/03/13 00:33:44;;;;;;;3.65;3.20;;;16.40;76.90;;;;;;5004205;28;20049;-77
2023/03/13 00:36:12;;;;;;;4.18;3.67;;;16.40;76.30;;;;;;5005139;28;20037;-77
2023/03/13 00:38:37;;;;;;;3.97;3.67;;;16.40;76.10;;;;;;4983162;28;20128;-77
2023/03/13 00:41:04;;;;;;;4.10;3.78;;;16.40;76.30;;;;;;5002769;28;20121;-77
2023/03/13 00:43:29;;;;;;;3.67;3.38;;;16.40;76.10;;;;;;5004592;28;20045;-77
2023/03/13 00:45:55;;;;;;;4.05;3.63;;;16.40;76.20;;;;;;5005784;28;20034;-77
2023/03/13 00:48:21;;;;;;;4.63;4.30;;;16.40;76.10;;;;;;5005274;28;20029;-77
2023/03/13 00:50:47;;;;;;;3.40;3.20;;;16.40;76.10;;;;;;5002788;28;20499;-77
2023/03/13 00:53:12;;;;;;;4.30;3.90;;;16.40;75.90;;;;;;5002531;28;20153;-77
2023/03/13 00:55:38;;;;;;;3.67;3.38;;;16.40;75.90;;;;;;5003452;28;20038;-76
2023/03/13 00:58:03;;;;;;;3.78;3.47;;;16.40;75.80;;;;;;4998343;28;20511;-77
2023/03/13 01:00:29;;;;;;;3.17;2.97;;;16.40;76.10;;;;;;5005509;28;20069;-77
2023/03/13 01:02:54;;;;;;;3.90;3.60;;;16.40;76.00;;;;;;5003927;28;20250;-77
2023/03/13 01:05:20;;;;;;;3.28;3.05;;;16.40;76.00;;;;;;5006511;28;20037;-77
2023/03/13 01:07:46;;;;;;;3.45;3.25;;;16.40;76.00;;;;;;5000782;28;20104;-77
2023/03/13 01:10:11;;;;;;;3.45;3.25;;;16.40;75.90;;;;;;5004510;28;20046;-77
2023/03/13 01:12:37;;;;;;;3.30;3.00;;;16.40;75.80;;;;;;5003727;28;20121;-77
2023/03/13 01:15:03;;;;;;;3.92;2.78;;;16.40;75.80;;;;;;5035437;28;20041;-77
2023/03/13 01:17:29;;;;;;;3.30;3.10;;;16.40;75.90;;;;;;5003558;28;20033;-77
2023/03/13 01:19:55;;;;;;;3.55;3.25;;;16.40;76.00;;;;;;5004856;28;20034;-77
2023/03/13 01:22:21;;;;;;;3.28;3.08;;;16.40;75.70;;;;;;5035111;28;20034;-77
2023/03/13 01:24:51;;;;;;;4.05;3.75;;;16.30;75.90;;;;;;5002422;28;20091;-77
2023/03/13 01:27:17;;;;;;;3.70;3.10;;;16.40;75.80;;;;;;5003119;28;20042;-77
2023/03/13 01:29:42;;;;;;;3.03;2.83;;;16.40;75.80;;;;;;5017641;28;20100;-77
2023/03/13 01:32:08;;;;;;;3.30;3.10;;;16.30;75.90;;;;;;5000987;28;20120;-77
2023/03/13 01:34:34;;;;;;;3.00;2.80;;;16.40;76.00;;;;;;5004055;28;20203;-76
2023/03/13 01:36:59;;;;;;;3.00;2.75;;;16.30;75.70;;;;;;5002682;28;20578;-77
2023/03/13 01:39:25;;;;;;;2.97;2.70;;;16.40;75.90;;;;;;5002925;28;20462;-77
2023/03/13 01:41:51;;;;;;;2.75;2.55;;;16.30;75.80;;;;;;5002458;28;20496;-77
2023/03/13 01:44:24;;;;;;;2.72;2.53;;;16.30;75.80;;;;;;5001837;28;20542;-77
2023/03/13 01:46:49;;;;;;;2.55;2.40;;;16.40;75.80;;;;;;5003921;28;20038;-77
2023/03/13 01:49:28;;;;;;;2.78;2.58;;;16.30;75.60;;;;;;5003364;28;20050;-77
2023/03/13 01:52:05;;;;;;;2.72;2.53;;;16.40;75.80;;;;;;5041741;28;20034;-77
2023/03/13 01:54:50;;;;;;;2.42;2.33;;;16.40;75.60;;;;;;5003921;28;20133;-77
2023/03/13 01:57:27;;;;;;;2.60;2.42;;;16.30;75.70;;;;;;5003203;28;20042;-77
2023/03/13 02:00:11;;;;;;;2.60;2.40;;;16.40;75.70;;;;;;4984690;28;20120;-76
2023/03/13 02:02:37;;;;;;;2.60;2.40;;;16.30;75.70;;;;;;5000092;28;20049;-77
2023/03/13 02:05:03;;;;;;;2.40;2.25;;;16.30;76.50;;;;;;5003197;28;20445;-77
2023/03/13 02:07:44;;;;;;;2.65;2.45;;;16.40;75.80;;;;;;5002280;28;20050;-77
2023/03/13 02:10:10;;;;;;;2.33;2.17;;;16.30;75.70;;;;;;5002421;28;20177;-77
2023/03/13 02:12:37;;;;;;;2.70;2.50;;;16.30;75.80;;;;;;5005433;28;20579;-77
2023/03/13 02:15:22;;;;;;;2.53;2.33;;;16.30;75.70;;;;;;5037142;28;20165;-77
2023/03/13 02:17:48;;;;;;;2.53;2.42;;;16.30;75.60;;;;;;5003189;28;20042;-77
2023/03/13 02:20:14;;;;;;;2.30;2.20;;;16.30;75.70;;;;;;4989743;28;20728;-77
2023/03/13 02:22:52;;;;;;;2.38;2.28;;;16.30;75.50;;;;;;5007374;28;20104;-76
2023/03/13 02:25:24;;;;;;;2.47;2.28;;;16.30;75.60;;;;;;5021185;28;20519;-77
2023/03/13 02:28:14;;;;;;;2.47;2.28;;;16.30;75.70;;;;;;5004187;28;20053;-77
2023/03/13 02:30:41;;;;;;;2.63;2.53;;;16.30;75.70;;;;;;5037697;28;20050;-77
2023/03/13 02:33:07;;;;;;;2.90;2.70;;;16.30;75.60;;;;;;5002845;28;20050;-77
2023/03/13 02:35:32;;;;;;;2.30;2.20;;;16.30;75.80;;;;;;5006132;28;20526;-77
2023/03/13 02:38:00;;;;;;;2.85;2.72;;;16.30;75.90;;;;;;4987958;28;20053;-77
2023/03/13 02:40:32;;;;;;;2.20;2.10;;;16.30;75.80;;;;;;5017924;28;20049;-77
2023/03/13 02:42:59;;;;;;;2.38;2.25;;;16.30;75.80;;;;;;5021552;28;20132;-77
2023/03/13 02:45:24;;;;;;;2.67;2.47;;;16.30;75.80;;;;;;5002648;28;20037;-77
2023/03/13 02:47:50;;;;;;;2.33;2.20;;;16.30;75.80;;;;;;5002024;28;20060;-77
2023/03/13 02:50:16;;;;;;;1.90;1.80;;;16.30;75.70;;;;;;5003023;28;20050;-77
2023/03/13 02:52:49;;;;;;;2.30;2.20;;;16.30;75.80;;;;;;5003245;28;20049;-77
2023/03/13 02:55:17;;;;;;;2.20;2.10;;;16.30;75.70;;;;;;5021777;28;20169;-77
2023/03/13 02:57:43;;;;;;;1.98;1.88;;;16.30;75.80;;;;;;5005028;28;20504;-76
2023/03/13 03:00:15;;;;;;;2.15;2.05;;;16.30;75.80;;;;;;5005305;28;20063;-77
2023/03/13 03:02:41;;;;;;;2.15;2.05;;;16.30;75.80;;;;;;5006795;28;20030;-76
2023/03/13 03:05:07;;;;;;;2.10;2.00;;;16.30;75.90;;;;;;4990114;28;20052;-77
2023/03/13 03:07:33;;;;;;;2.45;2.35;;;16.30;75.80;;;;;;5005978;28;20096;-77
2023/03/13 03:09:58;;;;;;;2.40;2.30;;;16.30;75.80;;;;;;5006102;28;20046;-77
2023/03/13 03:12:24;;;;;;;2.15;1.95;;;16.30;75.90;;;;;;5007463;28;20494;-77
2023/03/13 03:14:50;;;;;;;2.38;2.20;;;16.30;75.80;;;;;;5004015;28;20096;-77
2023/03/13 03:17:15;;;;;;;1.95;1.67;;;16.20;75.90;;;;;;5002959;28;20393;-77
2023/03/13 03:19:41;;;;;;;1.90;1.80;;;16.30;75.90;;;;;;5003324;28;20557;-76
2023/03/13 03:22:06;;;;;;;2.08;1.90;;;16.20;75.90;;;;;;4994158;28;20045;-77
2023/03/13 03:24:32;;;;;;;1.70;1.60;;;16.30;75.80;;;;;;5004428;28;20034;-77
2023/03/13 03:26:58;;;;;;;1.73;1.60;;;16.30;75.80;;;;;;5005556;28;20594;-77
2023/03/13 03:29:23;;;;;;;1.55;1.45;;;16.30;75.70;;;;;;5003941;28;20045;-77
2023/03/13 03:31:49;;;;;;;2.10;1.90;;;16.30;75.70;;;;;;5004316;28;20038;-77
2023/03/13 03:34:14;;;;;;;1.80;1.70;;;16.20;75.70;;;;;;5005021;28;20046;-77
2023/03/13 03:36:41;;;;;;;1.58;1.48;;;16.30;75.60;;;;;;5004392;28;20050;-77
2023/03/13 03:39:06;;;;;;;2.38;2.20;;;16.20;75.70;;;;;;5003974;28;20758;-77
2023/03/13 03:41:32;;;;;;;2.17;2.05;;;16.30;75.70;;;;;;5017826;28;20468;-77
2023/03/13 03:43:58;;;;;;;2.15;2.05;;;16.30;75.50;;;;;;5002320;28;20045;-77
2023/03/13 03:46:23;;;;;;;1.75;1.65;;;16.30;75.70;;;;;;5005568;28;20149;-77
2023/03/13 03:48:49;;;;;;;2.00;1.90;;;16.30;75.70;;;;;;5005109;28;20091;-77
2023/03/13 03:51:15;;;;;;;1.90;1.80;;;16.30;75.70;;;;;;5004567;28;20590;-77
2023/03/13 03:53:40;;;;;;;1.88;1.77;;;16.30;75.80;;;;;;5020088;28;20420;-77
2023/03/13 03:56:06;;;;;;;1.60;1.50;;;16.30;75.70;;;;;;5037870;28;20050;-76
2023/03/13 03:58:32;;;;;;;1.50;1.40;;;16.20;75.70;;;;;;5002751;28;20474;-77
2023/03/13 04:00:57;;;;;;;1.63;1.52;;;16.30;75.70;;;;;;5003959;28;20061;-77
2023/03/13 04:03:23;;;;;;;1.63;1.52;;;16.20;75.60;;;;;;5006263;28;20037;-77
2023/03/13 04:05:48;;;;;;;1.80;1.70;;;16.20;75.60;;;;;;5003905;28;20144;-76
2023/03/13 04:08:14;;;;;;;2.00;1.90;;;16.20;75.70;;;;;;5001511;28;20133;-77
2023/03/13 04:10:40;;;;;;;1.73;1.63;;;16.20;75.70;;;;;;5004929;28;20061;-77
2023/03/13 04:13:05;;;;;;;2.03;1.92;;;16.20;75.70;;;;;;5005310;28;20500;-76
2023/03/13 04:15:31;;;;;;;1.80;1.70;;;16.30;75.50;;;;;;5004058;28;20045;-76
2023/03/13 04:17:56;;;;;;;1.50;1.40;;;16.30;75.20;;;;;;5003483;28;20045;-76
2023/03/13 04:20:22;;;;;;;1.52;1.42;;;16.30;75.30;;;;;;5004929;28;20040;-76
2023/03/13 04:22:48;;;;;;;1.33;1.23;;;16.30;75.50;;;;;;5004240;28;20448;-76
2023/03/13 04:25:13;;;;;;;1.85;1.75;;;16.20;75.40;;;;;;5002063;28;20037;-76
2023/03/13 04:27:39;;;;;;;1.48;1.38;;;16.30;75.50;;;;;;5004765;28;20354;-76
2023/03/13 04:30:06;;;;;;;1.08;1.08;;;16.20;75.60;;;;;;5001022;28;20703;-76
2023/03/13 04:32:31;;;;;;;1.50;1.40;;;16.30;75.60;;;;;;4996937;28;20514;-76
2023/03/13 04:34:57;;;;;;;1.52;1.42;;;16.20;75.60;;;;;;5003327;28;20034;-76
2023/03/13 04:37:23;;;;;;;1.42;1.33;;;16.20;75.70;;;;;;5004473;28;20037;-76
2023/03/13 04:39:48;;;;;;;1.10;1.10;;;16.20;75.80;;;;;;5004573;28;20038;-76
2023/03/13 04:42:14;;;;;;;1.40;1.30;;;16.20;75.80;;;;;;5002742;28;20045;-76
2023/03/13 04:44:40;;;;;;;1.35;1.25;;;16.20;75.60;;;;;;5004580;28;20180;-76
2023/03/13 04:47:05;;;;;;;1.25;1.25;;;16.20;75.70;;;;;;5002455;28;20098;-76
2023/03/13 04:49:31;;;;;;;1.55;1.45;;;16.20;75.60;;;;;;5005221;28;20046;-76
2023/03/13 04:51:56;;;;;;;1.13;1.13;;;16.20;75.60;;;;;;5003165;28;20072;-76
2023/03/13 04:54:22;;;;;;;1.30;1.20;;;16.20;75.50;;;;;;5005193;28;20042;-76
2023/03/13 04:56:48;;;;;;;1.02;1.02;;;16.20;75.50;;;;;;5001671;28;20068;-75
2023/03/13 04:59:13;;;;;;;1.05;1.05;;;16.20;75.40;;;;;;5003250;28;20108;-76
2023/03/13 05:01:39;;;;;;;1.38;1.30;;;16.20;75.30;;;;;;5002826;28;20064;-76
2023/03/13 05:04:05;;;;;;;1.40;1.30;;;16.20;75.40;;;;;;4997108;28;20061;-76
2023/03/13 05:06:31;;;;;;;1.23;1.23;;;16.20;75.50;;;;;;4990359;28;20068;-76
2023/03/13 05:08:56;;;;;;;1.30;1.20;;;16.20;75.50;;;;;;4985281;28;20099;-76
2023/03/13 05:11:22;;;;;;;1.17;1.17;;;16.20;75.40;;;;;;4986719;28;20089;-76
2023/03/13 05:13:47;;;;;;;0.98;0.98;;;16.20;75.50;;;;;;4984348;28;20554;-75
2023/03/13 05:16:13;;;;;;;1.33;1.23;;;16.20;75.50;;;;;;4985315;28;20100;-76
2023/03/13 05:18:39;;;;;;;1.13;1.05;;;16.20;75.40;;;;;;4984995;28;20042;-76
2023/03/13 05:21:05;;;;;;;1.50;1.40;;;16.20;75.50;;;;;;5014301;28;20438;-76
2023/03/13 05:23:30;;;;;;;3.05;1.60;;;16.20;75.30;;;;;;4986731;28;20056;-76
2023/03/13 05:25:56;;;;;;;1.30;1.20;;;16.20;75.20;;;;;;4983834;28;20046;-76
2023/03/13 05:28:22;;;;;;;1.20;1.10;;;16.20;75.10;;;;;;4996639;28;20561;-76
2023/03/13 05:30:47;;;;;;;1.70;1.60;;;16.20;75.20;;;;;;4985443;28;20046;-76
2023/03/13 05:33:13;;;;;;;1.77;1.67;;;16.20;75.20;;;;;;4983993;28;20515;-76
2023/03/13 05:35:38;;;;;;;1.48;1.38;;;16.20;75.40;;;;;;4987074;28;20122;-76
2023/03/13 05:38:04;;;;;;;1.42;1.10;;;16.20;75.10;;;;;;4981105;28;20046;-77
2023/03/13 05:40:30;;;;;;;1.00;1.00;;;16.20;75.10;;;;;;4983756;28;20046;-76
2023/03/13 05:42:55;;;;;;;1.45;1.35;;;16.30;75.10;;;;;;4984301;28;20565;-76
2023/03/13 05:45:21;;;;;;;1.45;1.15;;;16.20;75.10;;;;;;4985897;28;20125;-76
2023/03/13 05:47:46;;;;;;;1.30;1.20;;;16.30;75.10;;;;;;4988018;28;20476;-77
2023/03/13 05:50:12;;;;;;;0.95;0.95;;;16.30;74.90;;;;;;4990003;28;21601;-77
2023/03/13 05:52:38;;;;;;;0.95;0.95;;;16.20;75.00;;;;;;4987391;28;20053;-77
2023/03/13 05:55:03;;;;;;;1.08;1.05;;;16.30;75.00;;;;;;4986943;28;20424;-76
2023/03/13 05:57:29;;;;;;;1.20;1.10;;;16.20;75.10;;;;;;4990485;28;20054;-76
2023/03/13 05:59:55;;;;;;;0.90;0.90;;;16.30;75.00;;;;;;4997522;28;20590;-76
2023/03/13 06:02:20;;;;;;;0.82;0.80;;;16.30;74.90;;;;;;4998950;28;20056;-76
2023/03/13 06:04:46;;;;;;;1.00;1.00;;;16.30;74.90;;;;;;4988242;28;20522;-76
2023/03/13 06:07:12;;;;;;;0.80;0.80;;;16.30;74.70;;;;;;4987160;28;20149;-77
2023/03/13 06:09:39;;;;;;;1.58;1.13;;;16.30;74.80;;;;;;5024661;28;20093;-76
2023/03/13 06:12:06;;;;;;;1.15;1.10;;;16.20;74.80;;;;;;4982737;28;20660;-76
2023/03/13 06:14:32;;;;;;;1.27;1.00;;;16.20;74.80;;;;;;4989813;28;20765;-76
2023/03/13 06:16:57;;;;;;;1.27;0.80;;;16.30;74.90;;;;;;4986563;28;20143;-76
2023/03/13 06:19:23;;;;;;;0.93;0.93;;;16.30;74.80;;;;;;4988211;28;20077;-76
2023/03/13 06:21:49;;;;;;;0.90;0.90;;;16.30;74.80;;;;;;4988523;28;20476;-76
2023/03/13 06:24:15;;;;;;;1.08;0.90;;;16.30;74.80;;;;;;4988243;28;20034;-76
2023/03/13 06:26:40;;;;;;;1.30;1.20;;;16.30;74.60;;;;;;5017725;28;20041;-76
2023/03/13 06:29:06;;;;;;;0.70;0.70;;;16.30;74.80;;;;;;4987453;28;20583;-76
2023/03/13 06:31:32;;;;;;;1.27;1.17;;;16.30;74.70;;;;;;5019799;28;20061;-76
2023/03/13 06:33:57;;;;;;;1.48;1.20;;;16.30;74.80;;;;;;4986864;28;20050;-76
2023/03/13 06:36:23;;;;;;;1.42;1.27;;;16.30;74.70;;;;;;5018329;28;20462;-76
2023/03/13 06:38:49;;;;;;;1.35;1.25;;;16.30;74.50;;;;;;5023605;28;20041;-76
2023/03/13 06:41:14;;;;;;;1.45;1.30;;;16.30;74.60;;;;;;4987040;28;20145;-76
2023/03/13 06:43:40;;;;;;;0.95;0.95;;;16.30;74.70;;;;;;4987620;28;20053;-76
2023/03/13 06:46:06;;;;;;;1.45;1.27;;;16.30;74.40;;;;;;4987442;28;20060;-76
2023/03/13 06:48:32;;;;;;;1.15;1.13;;;16.30;74.70;;;;;;4987920;28;20061;-76
2023/03/13 06:50:58;;;;;;;1.17;1.10;;;16.30;74.80;;;;;;4986635;28;20605;-76
2023/03/13 06:53:23;;;;;;;1.38;1.10;;;16.30;75.10;;;;;;4963412;28;20427;-76
2023/03/13 06:55:49;;;;;;;1.15;1.02;;;16.30;75.10;;;;;;5003358;28;20050;-76
2023/03/13 06:58:15;;;;;;;1.30;1.20;;;16.30;75.10;;;;;;4985700;28;20728;-77
2023/03/13 07:00:43;;;;;;;1.10;1.00;;;16.40;75.30;;;;;;4984541;28;20081;-77
2023/03/13 07:03:09;;;;;;;1.42;1.10;;;16.30;75.40;;;;;;4986710;28;20100;-77
2023/03/13 07:05:35;;;;;;;1.10;1.00;;;16.30;75.50;;;;;;5019717;28;20087;-78
2023/03/13 07:08:01;;;;;;;1.42;1.33;;;16.40;75.50;;;;;;4987869;28;20062;-78
2023/03/13 07:10:26;;;;;;;1.10;1.00;;;16.40;75.30;;;;;;4987619;28;20128;-79
2023/03/13 07:12:52;;;;;;;1.60;1.00;;;16.40;75.70;;;;;;4987269;28;20487;-77
2023/03/13 07:15:17;;;;;;;1.33;1.00;;;16.40;76.10;;;;;;4989178;28;20054;-77
2023/03/13 07:17:43;;;;;;;1.05;0.80;;;16.40;75.90;;;;;;5018038;28;20042;-78
2023/03/13 07:20:09;;;;;;;1.70;1.08;;;16.40;76.10;;;;;;5017143;28;21599;-78
2023/03/13 07:22:36;;;;;;;1.38;1.23;;;16.40;76.10;;;;;;4988045;28;20101;-79
2023/03/13 07:25:02;;;;;;;1.30;1.17;;;16.40;76.10;;;;;;4985992;28;20030;-78
2023/03/13 07:27:27;;;;;;;1.00;1.00;;;16.40;76.00;;;;;;4986950;28;20042;-79
2023/03/13 07:29:53;;;;;;;1.88;1.45;;;16.40;75.90;;;;;;5017943;28;20111;-78
2023/03/13 07:32:19;;;;;;;2.83;0.90;;;16.40;76.00;;;;;;4984673;28;20466;-78
2023/03/13 07:34:44;;;;;;;1.13;1.05;;;16.40;75.90;;;;;;4984952;28;20153;-79
2023/03/13 07:37:11;;;;;;;1.08;1.00;;;16.40;76.00;;;;;;4996237;28;20052;-78
2023/03/13 07:39:37;;;;;;;1.08;0.98;;;16.40;75.90;;;;;;4986583;28;20498;-79
2023/03/13 07:42:02;;;;;;;1.10;1.00;;;16.50;76.00;;;;;;4999429;28;20125;-77
2023/03/13 07:44:28;;;;;;;1.00;1.00;;;16.50;76.30;;;;;;4999223;28;20041;-78
2023/03/13 07:46:53;;;;;;;1.48;1.23;;;16.50;76.10;;;;;;5002041;28;20045;-78
2023/03/13 07:49:19;;;;;;;1.63;1.20;;;16.50;76.50;;;;;;5018854;28;20049;-79
2023/03/13 07:51:47;;;;;;;2.55;1.20;;;16.50;76.50;;;;;;5008112;28;20042;-79
2023/03/13 07:54:12;;;;;;;1.13;1.13;;;16.50;76.40;;;;;;5005863;28;20034;-81
2023/03/13 07:56:38;;;;;;;0.98;0.95;;;16.50;76.30;;;;;;4999012;28;20496;-80
2023/03/13 07:59:04;;;;;;;0.70;0.70;;;16.50;76.20;;;;;;4995828;28;20485;-79
2023/03/13 08:01:29;;;;;;;1.50;1.10;;;16.50;76.20;;;;;;5014802;28;20065;-80
2023/03/13 08:03:55;;;;;;;1.38;1.27;;;16.60;76.60;;;;;;5005979;28;20514;-81
2023/03/13 08:06:22;;;;;;;0.98;0.98;;;16.50;76.50;;;;;;5005828;28;20042;-80
2023/03/13 08:08:48;;;;;;;1.55;1.42;;;16.60;76.50;;;;;;5004884;28;20045;-81
2023/03/13 08:11:15;;;;;;;1.20;0.95;;;16.60;76.80;;;;;;5006445;28;20046;-79
2023/03/13 08:13:41;;;;;;;1.35;1.20;;;16.60;76.60;;;;;;5002555;28;20061;-80
2023/03/13 08:16:14;;;;;;;2.03;1.27;;;16.60;76.50;;;;;;5006270;28;20042;-79
2023/03/13 08:18:41;;;;;;;1.17;1.05;;;16.60;76.50;;;;;;5005839;28;20038;-80
2023/03/13 08:21:09;;;;;;;0.90;0.90;;;16.60;76.40;;;;;;5003937;28;20034;-80
2023/03/13 08:23:34;;;;;;;1.90;1.10;;;16.60;76.40;;;;;;5005513;28;20026;-80
2023/03/13 08:26:11;;;;;;;1.67;1.15;;;16.60;76.20;;;;;;5005076;28;20042;-80
2023/03/13 08:28:36;;;;;;;1.20;1.10;;;16.60;76.20;;;;;;5003517;28;20144;-80
2023/03/13 08:31:12;;;;;;;1.83;1.40;;;16.60;76.40;;;;;;5018274;28;20510;-79
2023/03/13 08:33:38;;;;;;;2.85;1.08;;;16.60;76.20;;;;;;5006130;28;20100;-80
2023/03/13 08:36:12;;;;;;;1.20;1.10;;;16.60;76.10;;;;;;5004195;28;20060;-79
2023/03/13 08:38:38;;;;;;;0.85;0.82;;;16.60;75.90;;;;;;5003448;28;20342;-80
2023/03/13 08:41:04;;;;;;;1.13;1.02;;;16.60;75.80;;;;;;5003460;28;20147;-80
2023/03/13 08:43:29;;;;;;;1.25;1.15;;;16.60;75.70;;;;;;5006564;28;20477;-80
2023/03/13 08:45:55;;;;;;;1.40;1.02;;;16.60;75.70;;;;;;5005704;28;20100;-80
2023/03/13 08:48:21;;;;;;;1.30;1.20;;;16.60;75.60;;;;;;5005597;28;20045;-80
2023/03/13 08:50:47;;;;;;;1.85;0.93;;;16.60;75.60;;;;;;5006197;28;20399;-72
2023/03/13 08:53:12;;;;;;;2.83;1.70;;;16.60;75.50;;;;;;5005718;28;24046;-72
2023/03/13 08:55:38;;;;;;;1.30;1.08;;;16.60;75.50;;;;;;5006558;28;20038;-72
2023/03/13 08:58:03;;;;;;;1.30;1.20;;;16.70;75.40;;;;;;5006170;28;20105;-72
2023/03/13 09:00:29;;;;;;;1.10;0.95;;;16.70;75.40;;;;;;5006094;28;20037;-72
2023/03/13 09:02:56;;;;;;;1.88;0.88;;;16.70;75.20;;;;;;5003466;28;20041;-72
2023/03/13 09:05:22;;;;;;;1.98;1.63;;;16.70;75.00;;;;;;5005136;28;20051;-72
2023/03/13 09:07:49;;;;;;;2.38;1.30;;;16.70;75.00;;;;;;5004445;28;20202;-72
2023/03/13 09:10:15;;;;;;;2.97;1.10;;;16.80;74.90;;;;;;5004577;28;20404;-71
2023/03/13 09:12:41;;;;;;;1.63;1.23;;;16.80;74.80;;;;;;5004546;28;20139;-71
2023/03/13 09:15:07;;;;;;;2.17;1.52;;;16.80;74.90;;;;;;5005322;28;20046;-72
2023/03/13 09:17:33;;;;;;;1.30;1.20;;;16.80;74.90;;;;;;5005921;28;20041;-72
2023/03/13 09:19:58;;;;;;;0.98;0.98;;;16.80;74.80;;;;;;5005018;28;20107;-72
2023/03/13 09:22:24;;;;;;;1.48;1.30;;;16.80;74.70;;;;;;5009695;28;20606;-72
2023/03/13 09:24:49;;;;;;;1.80;1.20;;;16.90;74.70;;;;;;5011854;28;20034;-71
2023/03/13 09:27:15;;;;;;;1.30;1.20;;;16.80;74.50;;;;;;5008162;28;20049;-72
2023/03/13 09:29:41;;;;;;;1.73;1.15;;;16.90;74.60;;;;;;5009429;28;20128;-71
2023/03/13 09:32:08;;;;;;;1.33;1.00;;;16.90;74.60;;;;;;5009028;28;20042;-72
2023/03/13 09:34:34;;;;;;;1.70;1.33;;;16.80;74.50;;;;;;5024774;28;20127;-72
2023/03/13 09:37:00;;;;;;;2.55;1.50;;;16.90;74.40;;;;;;5006477;28;20606;-72
2023/03/13 09:39:25;;;;;;;1.38;1.17;;;16.90;74.20;;;;;;5008320;28;20042;-72
2023/03/13 09:42:05;;;;;;;1.30;1.20;;;16.90;74.20;;;;;;5008819;28;20060;-72
2023/03/13 09:44:32;;;;;;;1.38;1.23;;;16.90;74.20;;;;;;4992105;28;20058;-72
2023/03/13 09:47:00;;;;;;;1.25;1.10;;;17.00;74.00;;;;;;4991198;28;20049;-72
2023/03/13 09:49:33;;;;;;;1.35;1.25;;;17.00;74.00;;;;;;5007327;28;20042;-72
2023/03/13 09:52:14;;;;;;;1.10;1.00;;;17.00;74.00;;;;;;5039992;28;20050;-72
2023/03/13 09:54:53;;;;;;;1.30;1.10;;;17.00;73.90;;;;;;5005204;28;20046;-72
2023/03/13 09:57:28;;;;;;;1.38;1.27;;;17.00;73.90;;;;;;4990059;28;20039;-72
2023/03/13 09:59:57;;;;;;;;;;;17.00;74.70;;;;;;5006038;28;20107;-72
2023/03/13 10:02:33;;;;;;;1.92;1.40;;;17.00;74.70;;;;;;5008167;28;19971;-72
2023/03/13 10:05:17;;;;;;;1.40;1.13;;;17.00;73.80;;;;;;5022551;28;20034;-72
2023/03/13 10:07:43;;;;;;;1.63;1.20;;;17.10;73.90;;;;;;5005378;28;20104;-72
2023/03/13 10:10:20;;;;;;;1.40;1.30;;;17.10;73.80;;;;;;5006149;28;20499;-72
2023/03/13 10:12:47;;;;;;;1.77;1.30;;;17.10;74.50;;;;;;5006689;28;20116;-72
2023/03/13 10:15:27;;;;;;;1.40;1.15;;;17.10;73.70;;;;;;4987092;28;20133;-72
2023/03/13 10:17:52;;;;;;;2.45;1.45;;;17.10;74.60;;;;;;5021828;28;20095;-72
2023/03/13 10:20:25;;;;;;;1.33;1.23;;;17.10;73.70;;;;;;5006572;28;20026;-72
2023/03/13 10:22:58;;;;;;;1.90;1.20;;;17.10;73.70;;;;;;5007276;28;20069;-72
2023/03/13 10:25:34;;;;;;;2.42;1.08;;;17.10;73.70;;;;;;5003989;28;20038;-72
2023/03/13 10:28:00;;;;;;;2.30;1.63;;;17.10;73.70;;;;;;5007497;28;20061;-72
2023/03/13 10:30:25;;;;;;;1.30;1.20;;;17.10;74.60;;;;;;5007705;28;20133;-72
2023/03/13 10:33:00;;;;;;;1.48;1.13;;;17.10;73.70;;;;;;5007547;28;20129;-72
2023/03/13 10:35:36;;;;;;;2.45;1.15;;;17.10;73.70;;;;;;5005612;28;20092;-72
2023/03/13 10:38:23;;;;;;;1.60;0.90;;;17.10;73.70;;;;;;5007451;28;20036;-72
2023/03/13 10:41:25;;;;;;;1.63;1.17;;;17.00;73.60;;;;;;5000839;28;20067;-72
2023/03/13 10:43:52;;;;;;;2.53;1.27;;;17.00;73.60;;;;;;4929019;28;20102;-72
2023/03/13 10:46:28;;;;;;;1.50;1.00;;;17.10;73.70;;;;;;4947785;28;20055;-72
2023/03/13 10:48:55;;;;;;;1.52;0.98;;;17.10;73.60;;;;;;4960221;28;20043;-72
2023/03/13 10:51:21;;;;;;;1.02;0.82;;;17.10;73.50;;;;;;4947519;28;20568;-72
2023/03/13 10:53:47;;;;;;;2.97;1.00;;;17.10;73.40;;;;;;4946143;28;20047;-72
2023/03/13 10:56:14;;;;;;;1.30;1.20;;;17.10;73.40;;;;;;4946420;28;20756;-72
2023/03/13 10:58:53;;;;;;;2.13;1.10;;;17.10;73.20;;;;;;4945771;28;20058;-72
2023/03/13 11:01:30;;;;;;;2.38;1.13;;;17.10;73.00;;;;;;4927794;28;20509;-72
2023/03/13 11:03:57;;;;;;;2.00;1.00;;;17.20;73.00;;;;;;4931207;28;20051;-72
2023/03/13 11:06:26;;;;;;;1.73;1.35;;;17.20;72.90;;;;;;4947135;28;20048;-72
2023/03/13 11:09:15;;;;;;;1.55;1.08;;;17.20;72.90;;;;;;4926882;28;20051;-72
2023/03/13 11:11:54;;;;;;;1.27;1.10;;;17.20;73.00;;;;;;4928165;28;20043;-72
2023/03/13 11:14:24;;;;;;;1.15;0.90;;;17.20;73.10;;;;;;4928097;28;20043;-72
2023/03/13 11:16:53;;;;;;;2.05;0.95;;;17.20;73.00;;;;;;4946504;28;20078;-72
2023/03/13 11:19:48;;;;;;;1.17;1.02;;;17.20;73.00;;;;;;4942870;28;20031;-72
2023/03/13 11:22:30;;;;;;;4.00;1.20;;;17.20;72.90;;;;;;4622002;28;10000388;-72
2023/03/13 11:25:29;;;;;;;2.13;1.20;;;17.20;73.00;;;;;;5001132;28;20066;-72
2023/03/13 11:28:13;;;;;;;1.63;1.20;;;17.20;73.10;;;;;;5001718;28;20104;-72
2023/03/13 11:31:03;;;;;;;1.33;1.10;;;17.30;73.20;;;;;;5003772;28;20044;-72
2023/03/13 11:34:04;;;;;;;2.10;1.40;;;17.30;73.20;;;;;;5004298;28;20803;-72
2023/03/13 11:37:03;;;;;;;1.60;1.45;;;17.30;72.90;;;;;;5002439;28;20046;-72
2023/03/13 11:39:40;;;;;;;4.05;1.90;;;17.30;72.90;;;;;;5026447;28;20122;-72
2023/03/13 11:42:24;;;;;;;2.35;1.55;;;17.40;73.70;;;;;;4999905;28;20553;-72
2023/03/13 11:44:50;;;;;;;1.33;1.23;;;17.40;72.60;;;;;;4999044;28;20137;-71
2023/03/13 11:47:24;;;;;;;1.35;1.25;;;17.40;72.50;;;;;;5003946;28;20121;-71
2023/03/13 11:50:19;;;;;;;3.58;1.55;;;17.40;72.70;;;;;;5004091;28;20038;-72
2023/03/13 11:53:08;;;;;;;2.83;2.10;;;17.50;73.50;;;;;;5035629;28;20038;-73
2023/03/13 11:56:05;;;;;;;2.10;1.23;;;17.40;74.30;;;;;;5001854;28;20748;-72
2023/03/13 11:58:59;;;;;;;2.28;1.20;;;17.50;75.50;;;;;;5002663;28;20041;-71
2023/03/13 12:01:31;;;;;;;1.92;1.38;;;17.50;75.10;;;;;;5001189;28;20451;-71
2023/03/13 12:04:14;;;;;;;2.28;1.08;;;17.50;76.70;;;;;;5036816;28;20113;-72
2023/03/13 12:06:45;;;;;;;1.60;1.23;;;17.50;77.80;;;;;;5020677;28;20038;-72
2023/03/13 12:09:14;;;;;;;3.72;1.58;;;17.50;78.60;;;;;;5003847;28;20108;-72
2023/03/13 12:11:58;;;;;;;2.40;0.93;;;17.50;78.30;;;;;;5033321;28;20212;-71
2023/03/13 12:14:38;;;;;;;2.85;1.40;;;17.50;77.80;;;;;;5000576;28;20042;-72
2023/03/13 12:17:08;;;;;;;2.40;1.48;;;17.50;76.30;;;;;;5018554;28;20399;-72
2023/03/13 12:19:40;;;;;;;2.10;1.15;;;17.50;75.50;;;;;;5001470;28;20065;-72
2023/03/13 12:22:30;;;;;;;1.80;1.65;;;17.50;74.50;;;;;;5002548;28;20056;-72
2023/03/13 12:25:01;;;;;;;1.95;1.65;;;17.50;74.50;;;;;;5007071;28;20044;-73
2023/03/13 12:27:35;;;;;;;4.05;1.50;;;17.60;74.10;;;;;;5004735;28;20176;-74
2023/03/13 12:30:25;;;;;;;1.63;1.42;;;17.60;73.70;;;;;;4651010;28;9999823;-73
2023/03/13 12:33:03;;;;;;;3.15;1.58;;;17.60;73.60;;;;;;4647730;28;9999656;-73
2023/03/13 12:35:32;;;;;;;2.22;1.60;;;17.60;73.60;;;;;;4998137;28;20053;-73
2023/03/13 12:38:25;;;;;;;2.85;1.73;;;17.50;73.70;;;;;;5000438;28;20113;-73
2023/03/13 12:41:09;;;;;;;1.40;1.20;;;17.60;73.80;;;;;;5035440;28;20419;-73
2023/03/13 12:43:37;;;;;;;2.38;1.45;;;17.60;73.80;;;;;;5005092;28;20052;-73
2023/03/13 12:46:14;;;;;;;1.40;1.23;;;17.50;73.80;;;;;;5018296;28;20204;-73
2023/03/13 12:49:03;;;;;;;2.30;1.47;;;17.50;73.90;;;;;;4652235;28;10000029;-73
2023/03/13 12:51:43;;;;;;;2.30;1.83;;;17.50;74.00;;;;;;5016909;28;20160;-74
2023/03/13 12:54:30;;;;;;;1.83;1.20;;;17.50;74.20;;;;;;5000426;28;20370;-73
2023/03/13 12:57:17;;;;;;;3.13;1.67;;;17.50;74.10;;;;;;4998980;28;20115;-73
2023/03/13 12:59:48;;;;;;;1.83;1.08;;;17.50;74.00;;;;;;4984239;28;20077;-73